createdAt,value
2023-05-08T00:00:18.417Z,11.80
2023-05-08T00:02:51.140Z,11.74
2023-05-08T00:05:19.285Z,11.69
2023-05-08T00:07:47.515Z,11.69
2023-05-08T00:10:17.478Z,11.66
2023-05-08T00:12:47.799Z,11.66
2023-05-08T00:15:16.826Z,11.68
2023-05-08T00:17:44.937Z,11.64
2023-05-08T00:20:14.152Z,11.61
2023-05-08T00:22:42.831Z,11.54
2023-05-08T00:25:12.232Z,11.58
2023-05-08T00:27:40.708Z,11.59
2023-05-08T00:30:11.957Z,11.61
2023-05-08T00:32:40.710Z,11.54
2023-05-08T00:35:10.042Z,11.57
2023-05-08T00:37:40.902Z,11.59
2023-05-08T00:40:10.733Z,11.60
2023-05-08T00:42:39.782Z,11.60
2023-05-08T00:45:08.927Z,11.60
2023-05-08T00:47:39.995Z,11.55
2023-05-08T00:50:09.054Z,11.50
2023-05-08T00:52:36.901Z,11.46
2023-05-08T00:55:06.362Z,11.47
2023-05-08T00:57:35.776Z,11.46
2023-05-08T01:00:05.781Z,11.37
2023-05-08T01:02:34.010Z,11.27
2023-05-08T01:05:04.492Z,11.19
2023-05-08T01:07:33.342Z,11.19
2023-05-08T01:10:01.301Z,11.15
2023-05-08T01:12:41.333Z,11.07
2023-05-08T01:15:16.923Z,11.08
2023-05-08T01:18:08.789Z,10.96
2023-05-08T01:20:46.211Z,10.91
2023-05-08T01:23:45.243Z,10.86
2023-05-08T01:26:43.862Z,10.77
2023-05-08T01:29:45.167Z,10.71
2023-05-08T01:32:18.439Z,10.71
2023-05-08T01:34:54.540Z,10.67
2023-05-08T01:37:31.110Z,10.59
2023-05-08T01:40:11.504Z,10.51
2023-05-08T01:42:55.074Z,10.45
2023-05-08T01:45:28.336Z,10.33
2023-05-08T01:48:05.163Z,10.27
2023-05-08T01:50:40.050Z,10.35
2023-05-08T01:53:13.821Z,10.12
2023-05-08T01:55:44.931Z,10.06
2023-05-08T01:58:14.728Z,10.00
2023-05-08T02:00:44.870Z,10.01
2023-05-08T02:03:16.939Z,10.07
2023-05-08T02:05:46.145Z,10.13
2023-05-08T02:08:16.114Z,10.19
2023-05-08T02:10:46.208Z,10.04
2023-05-08T02:13:19.155Z,9.99
2023-05-08T02:15:49.481Z,9.97
2023-05-08T02:18:21.272Z,9.93
2023-05-08T02:20:52.070Z,9.73
2023-05-08T02:23:21.771Z,9.85
2023-05-08T02:25:52.107Z,9.94
2023-05-08T02:28:21.569Z,9.88
2023-05-08T02:30:51.047Z,9.87
2023-05-08T02:33:21.281Z,9.93
2023-05-08T02:35:51.639Z,9.78
2023-05-08T02:38:22.649Z,9.81
2023-05-08T02:40:54.697Z,9.68
2023-05-08T02:43:23.997Z,9.57
2023-05-08T02:46:07.629Z,9.58
2023-05-08T02:48:40.751Z,9.62
2023-05-08T02:51:19.684Z,9.52
2023-05-08T02:53:52.567Z,9.74
2023-05-08T02:56:32.201Z,9.80
2023-05-08T02:59:11.322Z,9.71
2023-05-08T03:01:45.575Z,9.58
2023-05-08T03:04:25.204Z,9.50
2023-05-08T03:06:56.476Z,9.48
2023-05-08T03:09:27.984Z,9.33
2023-05-08T03:12:04.851Z,9.47
2023-05-08T03:14:41.615Z,9.47
2023-05-08T03:17:17.381Z,9.54
2023-05-08T03:19:56.237Z,9.38
2023-05-08T03:22:26.724Z,9.48
2023-05-08T03:25:14.090Z,9.46
2023-05-08T03:27:43.047Z,9.50
2023-05-08T03:30:55.252Z,9.54
2023-05-08T03:33:25.429Z,9.52
2023-05-08T03:35:57.520Z,9.35
2023-05-08T03:38:26.033Z,9.55
2023-05-08T03:40:54.637Z,9.33
2023-05-08T03:43:30.528Z,9.23
2023-05-08T03:45:59.224Z,9.11
2023-05-08T03:48:28.584Z,9.22
2023-05-08T03:50:59.994Z,9.25
2023-05-08T03:53:28.730Z,9.18
2023-05-08T03:55:59.014Z,9.14
2023-05-08T03:58:33.850Z,9.15
2023-05-08T04:01:08.913Z,9.19
2023-05-08T04:03:57.100Z,9.02
2023-05-08T04:06:42.124Z,9.07
2023-05-08T04:09:28.132Z,9.07
2023-05-08T04:12:03.407Z,9.00
2023-05-08T04:14:36.552Z,9.13
2023-05-08T04:17:10.997Z,9.21
2023-05-08T04:19:44.434Z,9.22
2023-05-08T04:22:14.179Z,9.23
2023-05-08T04:24:46.635Z,9.20
2023-05-08T04:27:15.499Z,9.22
2023-05-08T04:29:44.234Z,9.26
2023-05-08T04:32:13.503Z,9.31
2023-05-08T04:34:42.193Z,9.39
2023-05-08T04:37:10.257Z,9.39
2023-05-08T04:39:40.945Z,9.35
2023-05-08T04:42:09.916Z,9.39
2023-05-08T04:44:39.218Z,9.48
2023-05-08T04:47:08.136Z,9.47
2023-05-08T04:49:37.514Z,9.54
2023-05-08T04:52:06.519Z,9.51
2023-05-08T04:54:34.972Z,9.46
2023-05-08T04:57:04.466Z,9.59
2023-05-08T04:59:32.973Z,9.68
2023-05-08T05:02:06.051Z,9.74
2023-05-08T05:04:34.438Z,9.77
2023-05-08T05:07:03.596Z,9.85
2023-05-08T05:09:34.924Z,9.96
2023-05-08T05:12:04.229Z,9.98
2023-05-08T05:14:33.439Z,10.10
2023-05-08T05:17:01.377Z,10.17
2023-05-08T05:19:29.662Z,10.21
2023-05-08T05:21:58.188Z,10.24
2023-05-08T05:24:28.094Z,10.38
2023-05-08T05:26:55.964Z,10.50
2023-05-08T05:29:25.616Z,10.60
2023-05-08T05:31:53.687Z,10.65
2023-05-08T05:34:22.222Z,10.79
2023-05-08T05:36:50.143Z,10.85
2023-05-08T05:39:18.250Z,11.03
2023-05-08T05:41:48.841Z,11.07
2023-05-08T05:44:16.924Z,11.34
2023-05-08T05:46:46.438Z,11.50
2023-05-08T05:49:14.686Z,11.66
2023-05-08T05:51:42.991Z,11.82
2023-05-08T05:54:15.335Z,11.86
2023-05-08T05:56:43.479Z,12.11
2023-05-08T05:59:11.531Z,12.12
2023-05-08T06:01:39.660Z,12.21
2023-05-08T06:04:11.597Z,12.64
2023-05-08T06:06:39.438Z,12.92
2023-05-08T06:09:10.439Z,13.23
2023-05-08T06:11:38.729Z,13.89
2023-05-08T06:14:06.828Z,14.00
2023-05-08T06:16:35.641Z,13.96
2023-05-08T06:19:03.690Z,14.22
2023-05-08T06:21:34.555Z,14.31
2023-05-08T06:24:02.536Z,14.86
2023-05-08T06:26:30.807Z,15.05
2023-05-08T06:28:58.844Z,15.38
2023-05-08T06:31:27.357Z,15.41
2023-05-08T06:33:56.437Z,15.27
2023-05-08T06:36:27.084Z,16.16
2023-05-08T06:38:59.006Z,16.15
2023-05-08T06:41:27.602Z,16.52
2023-05-08T06:43:55.607Z,17.14
2023-05-08T06:46:23.528Z,17.26
2023-05-08T06:48:51.534Z,17.39
2023-05-08T06:51:23.293Z,16.94
2023-05-08T06:53:51.415Z,17.88
2023-05-08T06:56:21.172Z,17.59
2023-05-08T06:59:04.545Z,17.56
2023-05-08T07:01:38.385Z,16.83
2023-05-08T07:04:06.755Z,16.55
2023-05-08T07:06:36.906Z,16.07
2023-05-08T07:09:05.292Z,16.69
2023-05-08T07:11:34.732Z,16.64
2023-05-08T07:14:05.115Z,16.17
2023-05-08T07:16:34.622Z,15.68
2023-05-08T07:19:03.262Z,15.44
2023-05-08T07:21:31.899Z,15.30
2023-05-08T07:23:59.818Z,15.06
2023-05-08T07:26:28.455Z,15.65
2023-05-08T07:28:57.690Z,15.75
2023-05-08T07:31:29.861Z,15.49
2023-05-08T07:33:58.853Z,15.72
2023-05-08T07:36:26.605Z,15.73
2023-05-08T07:38:54.611Z,15.61
2023-05-08T07:41:22.562Z,15.82
2023-05-08T07:43:50.727Z,15.93
2023-05-08T07:46:20.885Z,15.82
2023-05-08T07:48:48.924Z,15.80
2023-05-08T07:51:17.200Z,15.51
2023-05-08T07:53:45.330Z,15.62
2023-05-08T07:56:13.364Z,16.17
2023-05-08T07:58:54.704Z,16.22
2023-05-08T08:01:35.520Z,16.89
2023-05-08T08:04:23.610Z,17.07
2023-05-08T08:07:03.166Z,16.63
2023-05-08T08:09:31.273Z,16.78
2023-05-08T08:12:53.767Z,17.73
2023-05-08T08:15:39.844Z,17.25
2023-05-08T08:18:31.178Z,17.56
2023-05-08T08:20:59.050Z,17.60
2023-05-08T08:23:27.389Z,17.72
2023-05-08T08:25:55.194Z,17.84
2023-05-08T08:28:23.378Z,18.26
2023-05-08T08:30:52.346Z,19.55
2023-05-08T08:33:20.586Z,21.39
2023-05-08T08:35:51.211Z,20.91
2023-05-08T08:38:19.079Z,21.95
2023-05-08T08:40:46.978Z,22.51
2023-05-08T08:43:14.846Z,21.95
2023-05-08T08:45:42.885Z,23.18
2023-05-08T08:48:12.625Z,21.23
2023-05-08T08:50:45.004Z,21.72
2023-05-08T08:53:22.483Z,20.88
2023-05-08T08:55:59.524Z,20.09
2023-05-08T08:58:36.549Z,20.29
2023-05-08T09:01:08.882Z,20.80
2023-05-08T09:03:37.338Z,20.36
2023-05-08T09:06:06.273Z,20.71
2023-05-08T09:08:36.306Z,20.84
2023-05-08T09:11:05.013Z,21.98
2023-05-08T09:13:33.455Z,22.46
2023-05-08T09:16:02.031Z,22.75
2023-05-08T09:18:33.782Z,22.19
2023-05-08T09:21:04.719Z,21.75
2023-05-08T09:23:43.755Z,20.65
2023-05-08T09:26:42.265Z,21.94
2023-05-08T09:29:17.923Z,22.26
2023-05-08T09:31:47.493Z,22.40
2023-05-08T09:34:31.910Z,23.01
2023-05-08T09:37:14.187Z,22.97
2023-05-08T09:42:46.161Z,23.40
2023-05-08T09:45:32.658Z,23.71
2023-05-08T09:48:09.168Z,23.43
2023-05-08T09:53:07.449Z,24.51
2023-05-08T09:55:52.063Z,24.75
2023-05-08T09:58:23.839Z,24.80
2023-05-08T10:00:52.483Z,25.59
2023-05-08T10:03:20.878Z,25.39
2023-05-08T10:05:48.959Z,25.33
2023-05-08T10:08:21.581Z,24.84
2023-05-08T10:10:51.211Z,25.99
2023-05-08T10:13:19.271Z,26.53
2023-05-08T10:15:55.702Z,26.64
2023-05-08T10:18:30.264Z,26.10
2023-05-08T10:21:02.464Z,25.11
2023-05-08T10:23:30.713Z,25.38
2023-05-08T10:26:08.189Z,24.94
2023-05-08T10:28:43.742Z,24.96
2023-05-08T10:31:19.175Z,25.36
2023-05-08T10:33:51.546Z,24.70
2023-05-08T10:36:21.645Z,25.39
2023-05-08T10:38:51.452Z,25.64
2023-05-08T10:41:21.524Z,26.65
2023-05-08T10:43:51.209Z,26.43
2023-05-08T10:46:23.848Z,26.32
2023-05-08T10:49:00.300Z,25.89
2023-05-08T10:51:39.443Z,26.73
2023-05-08T10:54:14.998Z,25.94
2023-05-08T10:56:45.276Z,26.61
2023-05-08T10:59:20.270Z,26.07
2023-05-08T11:01:52.786Z,25.98
2023-05-08T11:04:24.936Z,25.84
2023-05-08T11:06:54.201Z,26.48
2023-05-08T11:09:23.798Z,26.50
2023-05-08T11:12:25.119Z,26.62
2023-05-08T11:15:01.528Z,26.66
2023-05-08T11:17:31.920Z,27.98
2023-05-08T11:20:01.663Z,26.77
2023-05-08T11:22:32.648Z,27.50
2023-05-08T11:25:08.685Z,28.22
2023-05-08T11:27:40.504Z,28.14
2023-05-08T11:30:36.361Z,28.06
2023-05-08T11:33:18.449Z,27.25
2023-05-08T11:35:50.047Z,25.47
2023-05-08T11:38:20.245Z,26.55
2023-05-08T11:40:58.085Z,27.29
2023-05-08T11:43:53.833Z,27.55
2023-05-08T11:46:22.868Z,27.60
2023-05-08T11:49:00.223Z,27.79
2023-05-08T11:51:32.520Z,26.29
2023-05-08T11:54:01.181Z,26.47
2023-05-08T11:56:29.784Z,25.58
2023-05-08T11:59:11.060Z,25.23
2023-05-08T12:01:46.416Z,24.20
2023-05-08T12:04:21.912Z,23.90
2023-05-08T12:06:53.826Z,26.17
2023-05-08T12:09:21.922Z,26.81
2023-05-08T12:11:58.524Z,27.04
2023-05-08T12:14:27.893Z,26.23
2023-05-08T12:16:55.885Z,26.48
2023-05-08T12:19:26.146Z,25.54
2023-05-08T12:21:57.768Z,26.75
2023-05-08T12:24:26.815Z,26.00
2023-05-08T12:26:56.264Z,26.30
2023-05-08T12:29:27.020Z,25.98
2023-05-08T12:31:57.655Z,26.93
2023-05-08T12:34:25.691Z,28.52
2023-05-08T12:37:03.441Z,29.24
2023-05-08T12:39:36.801Z,27.31
2023-05-08T12:42:04.922Z,26.37
2023-05-08T12:44:32.825Z,25.23
2023-05-08T12:47:03.221Z,25.40
2023-05-08T12:49:32.714Z,25.64
2023-05-08T12:52:07.677Z,26.21
2023-05-08T12:54:54.638Z,26.12
2023-05-08T12:57:23.854Z,25.30
2023-05-08T13:00:07.820Z,28.23
2023-05-08T13:03:04.480Z,30.56
2023-05-08T13:05:51.477Z,29.23
2023-05-08T13:08:19.414Z,29.38
2023-05-08T13:14:36.470Z,29.21
2023-05-08T13:17:07.381Z,29.33
2023-05-08T13:19:41.091Z,29.86
2023-05-08T13:22:09.139Z,29.03
2023-05-08T13:24:38.144Z,29.79
2023-05-08T13:27:07.690Z,30.21
2023-05-08T13:29:35.650Z,30.12
2023-05-08T13:32:05.818Z,28.86
2023-05-08T13:34:36.052Z,27.37
2023-05-08T13:37:08.767Z,26.14
2023-05-08T13:39:37.873Z,25.80
2023-05-08T13:42:05.947Z,26.18
2023-05-08T13:44:33.907Z,26.69
2023-05-08T13:47:02.294Z,26.74
2023-05-08T13:49:32.610Z,27.54
2023-05-08T13:52:01.113Z,27.44
2023-05-08T13:54:30.811Z,27.45
2023-05-08T13:56:58.948Z,26.81
2023-05-08T13:59:27.032Z,27.04
2023-05-08T14:01:55.213Z,28.22
2023-05-08T14:04:23.282Z,29.19
2023-05-08T14:06:52.909Z,28.87
2023-05-08T14:09:21.595Z,28.46
2023-05-08T14:11:51.009Z,29.46
2023-05-08T14:14:19.370Z,29.73
2023-05-08T14:16:47.466Z,30.13
2023-05-08T14:19:18.392Z,29.86
2023-05-08T14:21:46.692Z,27.77
2023-05-08T14:24:14.771Z,26.73
2023-05-08T14:26:44.838Z,25.38
2023-05-08T14:29:15.011Z,24.80
2023-05-08T14:31:47.253Z,24.45
2023-05-08T14:34:16.123Z,24.34
2023-05-08T14:36:44.056Z,24.41
2023-05-08T14:39:12.075Z,24.11
2023-05-08T14:41:40.086Z,24.21
2023-05-08T14:44:07.992Z,23.84
2023-05-08T14:46:43.622Z,23.98
2023-05-08T14:49:12.464Z,23.71
2023-05-08T14:51:44.225Z,23.66
2023-05-08T14:54:12.263Z,24.00
2023-05-08T14:59:28.125Z,23.23
2023-05-08T15:01:58.647Z,23.50
2023-05-08T15:04:26.549Z,23.56
2023-05-08T15:06:54.401Z,23.08
2023-05-08T15:09:22.298Z,22.60
2023-05-08T15:11:50.431Z,22.38
2023-05-08T15:14:18.505Z,22.17
2023-05-08T15:16:46.668Z,21.84
2023-05-08T15:19:17.004Z,21.34
2023-05-08T15:21:44.877Z,20.97
2023-05-08T15:24:12.823Z,20.79
2023-05-08T15:26:42.933Z,20.73
2023-05-08T15:29:10.904Z,20.49
2023-05-08T15:31:39.133Z,20.39
2023-05-08T15:34:07.459Z,20.28
2023-05-08T15:36:37.174Z,20.15
2023-05-08T15:39:05.232Z,20.12
2023-05-08T15:41:34.223Z,20.07
2023-05-08T15:44:02.288Z,19.98
2023-05-08T15:46:30.097Z,19.81
2023-05-08T15:49:02.671Z,19.51
2023-05-08T15:51:31.876Z,19.14
2023-05-08T15:54:01.700Z,18.82
2023-05-08T15:56:31.015Z,17.89
2023-05-08T15:58:58.844Z,17.28
2023-05-08T16:01:26.800Z,17.10
2023-05-08T16:03:54.903Z,16.88
2023-05-08T16:06:22.867Z,16.82
2023-05-08T16:08:52.089Z,16.65
2023-05-08T16:11:24.200Z,16.43
2023-05-08T16:13:52.842Z,16.38
2023-05-08T16:16:23.289Z,16.27
2023-05-08T16:18:51.235Z,16.24
2023-05-08T16:21:19.053Z,16.49
2023-05-08T16:23:47.050Z,16.31
2023-05-08T16:26:16.516Z,16.26
2023-05-08T16:28:45.905Z,16.31
2023-05-08T16:31:14.040Z,16.21
2023-05-08T16:33:41.941Z,16.44
2023-05-08T16:36:11.229Z,16.25
2023-05-08T16:38:40.082Z,16.39
2023-05-08T16:41:12.644Z,16.70
2023-05-08T16:43:41.601Z,16.71
2023-05-08T16:46:13.450Z,16.64
2023-05-08T16:48:42.266Z,16.68
2023-05-08T16:51:10.327Z,16.86
2023-05-08T16:53:38.948Z,17.04
2023-05-08T16:56:08.086Z,17.07
2023-05-08T16:58:36.036Z,17.09
2023-05-08T17:01:04.500Z,17.04
2023-05-08T17:03:34.650Z,16.94
2023-05-08T17:06:07.708Z,17.00
2023-05-08T17:08:36.552Z,16.91
2023-05-08T17:11:08.122Z,16.96
2023-05-08T17:13:43.802Z,16.82
2023-05-08T17:16:14.141Z,16.72
2023-05-08T17:18:44.026Z,16.67
2023-05-08T17:21:13.645Z,16.76
2023-05-08T17:23:41.904Z,16.64
2023-05-08T17:26:14.127Z,16.68
2023-05-08T17:28:47.204Z,16.69
2023-05-08T17:31:34.579Z,16.71
2023-05-08T17:34:11.254Z,16.90
2023-05-08T17:36:58.948Z,16.66
2023-05-08T17:39:34.872Z,16.84
2023-05-08T17:42:09.497Z,16.84
2023-05-08T17:44:38.530Z,16.86
2023-05-08T17:47:17.657Z,16.94
2023-05-08T17:49:49.582Z,16.86
2023-05-08T17:52:19.398Z,16.63
2023-05-08T17:54:59.363Z,16.70
2023-05-08T17:57:30.215Z,16.78
2023-05-08T17:59:58.947Z,16.63
2023-05-08T18:02:40.463Z,16.73
2023-05-08T18:05:46.387Z,16.87
2023-05-08T18:08:25.533Z,16.73
2023-05-08T18:10:53.507Z,16.72
2023-05-08T18:13:31.928Z,16.70
2023-05-08T18:16:19.299Z,16.68
2023-05-08T18:18:53.272Z,16.64
2023-05-08T18:21:22.181Z,16.65
2023-05-08T18:23:51.790Z,16.68
2023-05-08T18:26:19.753Z,16.62
2023-05-08T18:28:48.115Z,16.58
2023-05-08T18:31:19.027Z,16.65
2023-05-08T18:33:46.922Z,16.57
2023-05-08T18:36:16.103Z,16.52
2023-05-08T18:38:43.903Z,16.46
2023-05-08T18:41:16.367Z,16.40
2023-05-08T18:43:44.794Z,16.27
2023-05-08T18:46:13.914Z,16.46
2023-05-08T18:48:42.571Z,16.44
2023-05-08T18:51:10.720Z,16.37
2023-05-08T18:53:40.812Z,16.28
2023-05-08T18:56:09.151Z,16.23
2023-05-08T18:58:39.988Z,16.25
2023-05-08T19:01:09.008Z,16.16
2023-05-08T19:03:37.066Z,15.99
2023-05-08T19:06:05.794Z,16.00
2023-05-08T19:08:33.734Z,15.91
2023-05-08T19:11:01.896Z,15.86
2023-05-08T19:13:29.963Z,15.67
2023-05-08T19:16:07.551Z,15.76
2023-05-08T19:18:35.471Z,15.81
2023-05-08T19:21:03.541Z,15.90
2023-05-08T19:23:31.620Z,15.93
2023-05-08T19:25:59.672Z,15.90
2023-05-08T19:28:27.842Z,15.80
2023-05-08T19:30:55.875Z,15.69
2023-05-08T19:33:25.300Z,15.71
2023-05-08T19:35:53.240Z,15.72
2023-05-08T19:38:21.214Z,15.83
2023-05-08T19:40:57.310Z,15.82
2023-05-08T19:43:28.735Z,15.87
2023-05-08T19:45:57.348Z,15.84
2023-05-08T19:48:30.322Z,15.83
2023-05-08T19:50:58.394Z,15.84
2023-05-08T19:53:26.452Z,15.91
2023-05-08T19:55:54.237Z,15.92
2023-05-08T19:58:23.496Z,16.12
2023-05-08T20:00:52.051Z,16.14
2023-05-08T20:03:20.918Z,16.11
2023-05-08T20:05:51.802Z,16.11
2023-05-08T20:08:22.499Z,16.01
2023-05-08T20:10:51.591Z,15.99
2023-05-08T20:13:19.721Z,15.98
2023-05-08T20:15:52.323Z,16.01
2023-05-08T20:18:22.463Z,16.01
2023-05-08T20:20:54.379Z,16.03
2023-05-08T20:23:22.381Z,15.96
2023-05-08T20:25:50.561Z,16.02
2023-05-08T20:28:22.277Z,15.91
2023-05-08T20:30:51.097Z,15.89
2023-05-08T20:33:20.690Z,15.77
2023-05-08T20:35:53.094Z,15.73
2023-05-08T20:38:21.873Z,15.69
2023-05-08T20:40:54.903Z,15.76
2023-05-08T20:43:29.079Z,15.64
2023-05-08T20:46:02.010Z,15.62
2023-05-08T20:48:30.708Z,15.58
2023-05-08T20:51:03.808Z,15.58
2023-05-08T20:53:33.485Z,15.49
2023-05-08T20:56:02.065Z,15.55
2023-05-08T20:58:30.904Z,15.57
2023-05-08T21:00:59.423Z,15.64
2023-05-08T21:03:27.647Z,15.64
2023-05-08T21:05:56.016Z,15.62
2023-05-08T21:08:26.415Z,15.60
2023-05-08T21:10:54.390Z,15.69
2023-05-08T21:13:25.745Z,15.71
2023-05-08T21:15:53.772Z,15.74
2023-05-08T21:18:21.921Z,15.69
2023-05-08T21:20:50.735Z,15.61
2023-05-08T21:23:26.908Z,15.55
2023-05-08T21:25:55.156Z,15.68
2023-05-08T21:28:23.477Z,15.65
2023-05-08T21:30:51.518Z,15.58
2023-05-08T21:33:19.493Z,15.68
2023-05-08T21:35:48.610Z,15.61
2023-05-08T21:38:16.448Z,15.62
2023-05-08T21:40:46.182Z,15.58
2023-05-08T21:43:14.136Z,15.58
2023-05-08T21:45:42.048Z,15.64
2023-05-08T21:48:11.480Z,15.64
2023-05-08T21:50:39.537Z,15.61
2023-05-08T21:53:07.756Z,15.56
2023-05-08T21:55:35.793Z,15.61
2023-05-08T21:58:07.262Z,15.55
2023-05-08T22:00:35.342Z,15.54
2023-05-08T22:03:03.667Z,15.56
2023-05-08T22:05:31.865Z,15.57
2023-05-08T22:07:59.978Z,15.59
2023-05-08T22:10:31.222Z,15.61
2023-05-08T22:13:00.662Z,15.54
2023-05-08T22:15:35.325Z,15.35
2023-05-08T22:18:05.135Z,15.38
2023-05-08T22:20:33.244Z,15.55
2023-05-08T22:23:02.295Z,15.49
2023-05-08T22:25:30.851Z,15.49
2023-05-08T22:27:58.907Z,15.54
2023-05-08T22:30:27.140Z,15.55
2023-05-08T22:32:59.458Z,15.54
2023-05-08T22:35:28.369Z,15.58
2023-05-08T22:37:58.378Z,15.60
2023-05-08T22:40:27.712Z,15.52
2023-05-08T22:43:02.091Z,15.51
2023-05-08T22:45:31.602Z,15.25
2023-05-08T22:48:02.019Z,15.23
2023-05-08T22:50:30.098Z,15.20
2023-05-08T22:53:01.174Z,15.03
2023-05-08T22:55:31.408Z,14.92
2023-05-08T22:58:00.353Z,14.73
2023-05-08T23:00:30.357Z,14.67
2023-05-08T23:03:09.198Z,14.62
2023-05-08T23:05:40.061Z,14.56
2023-05-08T23:08:15.191Z,14.42
2023-05-08T23:10:43.452Z,14.47
2023-05-08T23:13:15.712Z,14.50
2023-05-08T23:15:55.926Z,14.32
2023-05-08T23:18:35.186Z,14.27
2023-05-08T23:21:32.516Z,14.23
2023-05-08T23:24:02.838Z,14.20
2023-05-08T23:26:59.525Z,14.20
2023-05-08T23:29:28.503Z,14.16
2023-05-08T23:31:56.701Z,14.17
2023-05-08T23:34:27.183Z,14.24
2023-05-08T23:36:55.283Z,14.20
2023-05-08T23:39:23.318Z,14.25
2023-05-08T23:41:53.138Z,14.24
2023-05-08T23:44:20.992Z,14.22
2023-05-08T23:46:51.102Z,14.21
2023-05-08T23:49:19.322Z,14.32
2023-05-08T23:51:49.122Z,14.23
2023-05-08T23:54:17.396Z,14.15
2023-05-08T23:56:45.318Z,14.09
2023-05-08T23:59:13.357Z,14.20
